Terminal Aerodrome Forecast
Issued by NWS Duluth, MN

Home | Current Version | Previous Version | Text Only | Print | Product List | Glossary On
Versions: 1 2 3 4 5 6 7 8 9 10 11 12 13 14 15 16 17 18 19 20 21 22 23 24 25 26 27 28 29 30 31
000
FTUS43 KDLH 171700
TAFINL
TAF
KINL 171721Z 1718/1818 05009KT P6SM SCT015
      TEMPO 1718/1720 BKN015
     FM180200 08005KT P6SM SCT030
     FM180900 14004KT P6SM SCT020=

USA.gov is the U.S. government's official web portal to all federal, state and local government web resources and services.